createdAt,value
2019-04-11T00:04:40.663Z,80.70
2019-04-11T00:09:47.818Z,81.00
2019-04-11T00:14:53.938Z,81.20
2019-04-11T00:20:00.003Z,81.40
2019-04-11T00:25:07.260Z,81.60
2019-04-11T00:30:13.130Z,82.70
2019-04-11T00:35:19.721Z,82.00
2019-04-11T00:40:25.398Z,82.10
2019-04-11T00:45:31.785Z,82.20
2019-04-11T00:50:37.416Z,82.40
2019-04-11T00:55:43.908Z,82.70
2019-04-11T01:06:10.047Z,82.40
2019-04-11T01:11:16.123Z,82.20
2019-04-11T01:16:40.963Z,82.20
2019-04-11T01:21:46.709Z,82.30
2019-04-11T01:26:52.289Z,82.60
2019-04-11T01:32:02.257Z,82.40
2019-04-11T01:37:07.840Z,82.60
2019-04-11T01:42:13.512Z,83.00
2019-04-11T01:47:27.414Z,83.40
2019-04-11T01:52:34.090Z,83.90
2019-04-11T01:57:40.278Z,85.00
2019-04-11T02:02:51.005Z,84.60
2019-04-11T02:07:56.777Z,85.60
2019-04-11T02:13:03.440Z,85.00
2019-04-11T02:18:09.348Z,84.90
2019-04-11T02:23:19.952Z,84.80
2019-04-11T02:28:25.837Z,84.70
2019-04-11T02:33:32.944Z,84.50
2019-04-11T02:38:39.090Z,84.30
2019-04-11T02:43:46.835Z,84.10
2019-04-11T02:48:54.071Z,84.00
2019-04-11T02:53:59.888Z,83.80
2019-04-11T02:59:06.083Z,83.70
2019-04-11T03:04:12.926Z,84.00
2019-04-11T03:09:19.751Z,84.00
2019-04-11T03:14:27.625Z,84.40
2019-04-11T03:20:06.981Z,84.90
2019-04-11T03:25:02.902Z,85.10
2019-04-11T03:30:14.683Z,85.40
2019-04-11T03:40:43.896Z,85.50
2019-04-11T03:45:51.369Z,86.00
2019-04-11T03:50:39.289Z,86.60
2019-04-11T03:55:45.528Z,87.00
2019-04-11T04:00:53.489Z,87.00
2019-04-11T04:05:59.966Z,87.90
2019-04-11T04:11:27.703Z,88.60
2019-04-11T04:16:48.287Z,87.70
2019-04-11T04:22:03.120Z,87.70
2019-04-11T04:27:10.250Z,87.50
2019-04-11T04:32:16.330Z,87.50
2019-04-11T04:37:24.815Z,87.80
2019-04-11T04:42:34.534Z,88.00
2019-04-11T04:47:46.541Z,88.00
2019-04-11T04:52:46.881Z,88.20
2019-04-11T04:57:53.232Z,88.30
2019-04-11T05:02:59.898Z,88.90
2019-04-11T05:08:06.199Z,90.00
2019-04-11T05:13:13.624Z,90.10
2019-04-11T05:18:20.987Z,90.20
2019-04-11T05:23:27.662Z,90.40
2019-04-11T05:28:33.349Z,90.40
2019-04-11T05:33:39.164Z,90.10
2019-04-11T05:38:45.027Z,90.40
2019-04-11T05:43:51.487Z,90.60
2019-04-11T05:49:09.285Z,90.60
2019-04-11T05:54:14.812Z,90.60
2019-04-11T05:59:23.942Z,90.80
2019-04-11T06:04:37.279Z,90.50
2019-04-11T06:09:46.264Z,90.50
2019-04-11T06:15:05.953Z,90.60
2019-04-11T06:20:29.667Z,90.50
2019-04-11T06:25:55.508Z,90.20
2019-04-11T06:31:20.192Z,90.20
2019-04-11T06:36:36.955Z,90.30
2019-04-11T06:42:05.778Z,90.20
2019-04-11T06:47:30.350Z,89.80
2019-04-11T06:52:36.987Z,89.30
2019-04-11T06:57:42.833Z,88.90
2019-04-11T07:02:55.158Z,89.00
2019-04-11T07:08:02.104Z,88.70
2019-04-11T07:13:16.398Z,88.10
2019-04-11T07:18:40.038Z,87.60
2019-04-11T07:24:03.573Z,87.00
2019-04-11T07:29:29.183Z,86.70
2019-04-11T07:34:53.115Z,85.90
2019-04-11T07:40:21.995Z,85.80
2019-04-11T07:45:34.266Z,84.90
2019-04-11T07:50:40.020Z,87.20
2019-04-11T07:55:46.590Z,83.60
2019-04-11T08:01:10.383Z,83.00
2019-04-11T08:06:34.784Z,82.70
2019-04-11T08:11:49.917Z,81.00
2019-04-11T08:17:27.126Z,79.70
2019-04-11T08:22:46.031Z,78.80
2019-04-11T08:28:00.085Z,77.00
2019-04-11T08:33:04.484Z,76.10
2019-04-11T08:38:16.587Z,74.40
2019-04-11T08:43:26.875Z,73.90
2019-04-11T08:48:35.150Z,72.20
2019-04-11T08:54:03.128Z,72.00
2019-04-11T08:59:29.385Z,73.10
2019-04-11T09:05:10.322Z,72.40
2019-04-11T09:10:28.440Z,71.80
2019-04-11T09:15:53.050Z,72.10
2019-04-11T09:21:16.187Z,71.00
2019-04-11T09:26:41.011Z,71.20
2019-04-11T09:32:05.974Z,71.20
2019-04-11T09:37:27.968Z,70.10
2019-04-11T09:42:51.375Z,69.10
2019-04-11T09:48:18.255Z,68.10
2019-04-11T09:53:23.601Z,68.50
2019-04-11T09:58:29.516Z,68.30
2019-04-11T10:03:35.180Z,67.50
2019-04-11T10:08:43.659Z,67.00
2019-04-11T10:13:55.472Z,67.20
2019-04-11T10:19:20.068Z,67.20
2019-04-11T10:24:37.030Z,66.30
2019-04-11T10:30:00.918Z,66.00
2019-04-11T10:35:26.070Z,66.00
2019-04-11T10:40:50.293Z,66.20
2019-04-11T10:46:17.936Z,66.40
2019-04-11T10:51:58.209Z,66.50
2019-04-11T10:57:22.534Z,66.00
2019-04-11T11:02:51.855Z,65.80
2019-04-11T11:08:03.143Z,65.50
2019-04-11T11:13:34.148Z,66.50
2019-04-11T11:19:31.176Z,65.90
2019-04-11T11:24:26.061Z,65.50
2019-04-11T11:29:51.563Z,65.80
2019-04-11T11:35:32.348Z,65.40
2019-04-11T11:40:54.244Z,65.20
2019-04-11T11:46:19.090Z,64.70
2019-04-11T11:51:58.073Z,64.70
2019-04-11T11:57:06.997Z,64.70
2019-04-11T12:02:18.260Z,65.10
2019-04-11T12:07:28.561Z,65.10
2019-04-11T12:13:06.650Z,64.80
2019-04-11T12:18:24.567Z,64.10
2019-04-11T12:24:06.512Z,64.10
2019-04-11T12:29:30.599Z,63.40
2019-04-11T12:34:55.740Z,63.40
2019-04-11T12:40:19.518Z,64.00
2019-04-11T12:45:49.783Z,63.40
2019-04-11T12:51:14.250Z,62.40
2019-04-11T12:56:37.238Z,61.90
2019-04-11T13:02:03.535Z,61.70
2019-04-11T13:07:34.730Z,61.50
2019-04-11T13:12:58.307Z,60.60
2019-04-11T13:18:35.302Z,59.90
2019-04-11T13:23:59.752Z,60.40
2019-04-11T13:29:14.760Z,60.20
2019-04-11T13:34:20.279Z,60.50
2019-04-11T13:39:25.880Z,59.90
2019-04-11T13:44:36.180Z,59.80
2019-04-11T13:49:47.215Z,59.80
2019-04-11T13:55:13.063Z,59.60
2019-04-11T14:00:36.436Z,59.80
2019-04-11T14:05:42.790Z,59.80
2019-04-11T14:11:04.526Z,59.50
2019-04-11T14:16:13.840Z,59.80
2019-04-11T14:21:20.758Z,59.70
2019-04-11T14:26:36.101Z,59.50
2019-04-11T14:31:50.924Z,59.30
2019-04-11T14:37:38.206Z,59.10
2019-04-11T14:43:08.804Z,58.90
2019-04-11T14:48:18.014Z,59.80
2019-04-11T14:53:36.915Z,58.90
2019-04-11T14:59:00.880Z,58.90
2019-04-11T15:04:34.540Z,59.00
2019-04-11T15:09:55.486Z,59.00
2019-04-11T15:15:20.125Z,59.00
2019-04-11T15:20:54.733Z,58.90
2019-04-11T15:26:15.128Z,58.70
2019-04-11T15:31:54.722Z,58.80
2019-04-11T15:37:22.280Z,58.60
2019-04-11T15:42:40.465Z,58.60
2019-04-11T15:47:58.386Z,58.00
2019-04-11T15:53:06.542Z,58.70
2019-04-11T15:58:12.775Z,58.70
2019-04-11T16:03:21.030Z,59.20
2019-04-11T16:08:43.415Z,59.00
2019-04-11T16:13:55.121Z,59.00
2019-04-11T16:19:29.039Z,59.00
2019-04-11T16:24:35.029Z,59.20
2019-04-11T16:29:50.788Z,59.60
2019-04-11T16:35:11.958Z,59.50
2019-04-11T16:40:53.490Z,59.80
2019-04-11T16:46:29.441Z,59.60
2019-04-11T16:51:35.426Z,60.00
2019-04-11T16:56:41.711Z,60.20
2019-04-11T17:01:53.419Z,60.80
2019-04-11T17:07:15.049Z,60.80
2019-04-11T17:12:20.876Z,60.90
2019-04-11T17:17:26.487Z,61.40
2019-04-11T17:22:31.993Z,61.70
2019-04-11T17:27:37.720Z,62.10
2019-04-11T17:32:43.310Z,62.40
2019-04-11T17:37:48.872Z,62.70
2019-04-11T17:42:54.644Z,63.10
2019-04-11T17:48:00.296Z,63.40
2019-04-11T17:53:06.807Z,63.90
2019-04-11T17:58:12.229Z,64.20
2019-04-11T18:03:17.742Z,64.30
2019-04-11T18:08:24.149Z,64.40
2019-04-11T18:13:31.557Z,64.80
2019-04-11T18:18:37.432Z,65.20
2019-04-11T18:23:43.114Z,65.00
2019-04-11T18:28:51.774Z,65.30
2019-04-11T18:33:55.883Z,65.60
2019-04-11T18:39:05.615Z,65.90
2019-04-11T18:44:09.858Z,65.30
2019-04-11T18:49:15.567Z,66.40
2019-04-11T18:54:21.317Z,66.50
2019-04-11T18:59:26.951Z,66.50
2019-04-11T19:04:33.932Z,66.30
2019-04-11T19:09:43.679Z,66.50
2019-04-11T19:14:47.553Z,66.40
2019-04-11T19:19:53.395Z,66.90
2019-04-11T19:24:58.976Z,67.10
2019-04-11T19:30:24.032Z,67.20
2019-04-11T19:35:30.460Z,67.40
2019-04-11T19:40:36.015Z,67.50
2019-04-11T19:45:41.724Z,68.10
2019-04-11T19:50:47.466Z,68.50
2019-04-11T19:56:10.897Z,68.60
2019-04-11T20:01:16.532Z,69.00
2019-04-11T20:06:22.303Z,69.50
2019-04-11T20:11:29.317Z,70.10
2019-04-11T20:16:41.410Z,70.20
2019-04-11T20:21:42.427Z,70.30
2019-04-11T20:26:50.355Z,70.60
2019-04-11T20:31:55.295Z,70.60
2019-04-11T20:37:00.853Z,71.00
2019-04-11T20:42:06.262Z,71.20
2019-04-11T20:47:11.809Z,71.30
2019-04-11T20:52:17.494Z,71.60
2019-04-11T20:57:25.944Z,71.70
2019-04-11T21:02:30.737Z,72.00
2019-04-11T21:07:39.087Z,72.60
2019-04-11T21:12:43.720Z,72.90
2019-04-11T21:17:49.430Z,73.10
2019-04-11T21:22:54.968Z,73.10
2019-04-11T21:28:03.083Z,73.30
2019-04-11T21:33:08.447Z,73.60
2019-04-11T21:38:14.026Z,73.70
2019-04-11T21:43:19.330Z,73.80
2019-04-11T21:48:25.157Z,74.00
2019-04-11T21:53:36.562Z,73.90
2019-04-11T21:58:37.995Z,73.90
2019-04-11T22:03:43.803Z,74.00
2019-04-11T22:08:49.988Z,74.00
2019-04-11T22:13:55.870Z,73.60
2019-04-11T22:19:01.516Z,73.60
2019-04-11T22:24:08.131Z,73.40
2019-04-11T22:29:13.853Z,73.50
2019-04-11T22:34:31.087Z,73.50
2019-04-11T22:39:36.553Z,73.70
2019-04-11T22:44:41.909Z,73.70
2019-04-11T22:49:47.511Z,73.70
2019-04-11T22:54:53.249Z,74.50
2019-04-11T22:59:58.951Z,73.60
2019-04-11T23:05:06.116Z,73.90
2019-04-11T23:10:11.907Z,73.80
2019-04-11T23:15:17.653Z,73.90
2019-04-11T23:20:23.280Z,74.10
2019-04-11T23:25:28.895Z,74.10
2019-04-11T23:30:34.628Z,74.60
2019-04-11T23:35:40.175Z,74.70
2019-04-11T23:40:45.826Z,74.80
2019-04-11T23:45:51.820Z,74.90
2019-04-11T23:50:57.512Z,75.00
2019-04-11T23:56:03.142Z,75.20
